createdAt,value
2022-10-23T00:00:18.363Z,100057.69
2022-10-23T00:02:51.836Z,100048.38
2022-10-23T00:05:20.301Z,100046.25
2022-10-23T00:07:51.594Z,100046.53
2022-10-23T00:10:18.385Z,100057.06
2022-10-23T00:12:45.387Z,100048.59
2022-10-23T00:15:12.277Z,100047.44
2022-10-23T00:17:39.334Z,100048.28
2022-10-23T00:20:07.489Z,100053.16
2022-10-23T00:22:34.490Z,100044.41
2022-10-23T00:25:01.391Z,100046.75
2022-10-23T00:27:28.393Z,100047.56
2022-10-23T00:29:55.050Z,100048.16
2022-10-23T00:32:21.582Z,100036.88
2022-10-23T00:34:48.214Z,100039.56
2022-10-23T00:37:14.694Z,100038.88
2022-10-23T00:39:41.515Z,100035.34
2022-10-23T00:42:11.265Z,100034.81
2022-10-23T00:44:37.831Z,100042.31
2022-10-23T00:47:04.418Z,100038.28
2022-10-23T00:49:32.554Z,100037.44
2022-10-23T00:52:04.415Z,100038.03
2022-10-23T00:54:34.854Z,100046.56
2022-10-23T00:57:03.202Z,100040.47
2022-10-23T00:59:30.504Z,100046.41
2022-10-23T01:01:57.781Z,100051.53
2022-10-23T01:04:25.295Z,100047.69
2022-10-23T01:06:59.633Z,100050.94
2022-10-23T01:09:38.307Z,100042.03
2022-10-23T01:12:11.029Z,100046.00
2022-10-23T01:14:44.849Z,100046.31
2022-10-23T01:17:17.903Z,100050.63
2022-10-23T01:19:53.388Z,100047.09
2022-10-23T01:22:28.401Z,100052.25
2022-10-23T01:24:58.968Z,100049.00
2022-10-23T01:27:28.440Z,100039.09
2022-10-23T01:30:15.990Z,100052.38
2022-10-23T01:32:49.583Z,100051.69
2022-10-23T01:35:23.295Z,100047.84
2022-10-23T01:37:54.129Z,100039.78
2022-10-23T01:40:25.028Z,100042.31
2022-10-23T01:42:57.281Z,100037.25
2022-10-23T01:45:39.222Z,100037.72
2022-10-23T01:48:07.093Z,100042.41
2022-10-23T01:50:34.753Z,100048.25
2022-10-23T01:53:03.633Z,100045.16
2022-10-23T01:55:31.627Z,100041.38
2022-10-23T01:57:59.693Z,100047.91
2022-10-23T02:00:26.282Z,100045.66
2022-10-23T02:02:54.642Z,100043.97
2022-10-23T02:05:26.902Z,100047.06
2022-10-23T02:07:53.936Z,100045.44
2022-10-23T02:10:21.577Z,100038.16
2022-10-23T02:13:01.632Z,100026.25
2022-10-23T02:15:40.560Z,100029.47
2022-10-23T02:18:25.864Z,100030.31
2022-10-23T02:20:56.766Z,100034.31
2022-10-23T02:23:33.206Z,100033.00
2022-10-23T02:26:05.921Z,100028.94
2022-10-23T02:28:40.444Z,100023.38
2022-10-23T02:31:10.482Z,100020.94
2022-10-23T02:33:37.195Z,100011.19
2022-10-23T02:36:04.473Z,100018.25
2022-10-23T02:38:40.380Z,100008.91
2022-10-23T02:41:27.983Z,100006.06
2022-10-23T02:44:00.897Z,100013.56
2022-10-23T02:46:40.078Z,100019.50
2022-10-23T02:49:10.648Z,100018.34
2022-10-23T02:51:46.566Z,100012.88
2022-10-23T02:54:19.755Z,100014.72
2022-10-23T02:56:58.769Z,100018.66
2022-10-23T02:59:28.224Z,100018.66
2022-10-23T03:02:09.558Z,100012.28
2022-10-23T03:04:37.222Z,100014.13
2022-10-23T03:07:03.984Z,100017.34
2022-10-23T03:09:31.317Z,100012.56
2022-10-23T03:11:57.841Z,100018.34
2022-10-23T03:14:24.762Z,100012.19
2022-10-23T03:16:51.264Z,100017.50
2022-10-23T03:19:18.150Z,100010.03
2022-10-23T03:21:44.639Z,100016.69
2022-10-23T03:24:11.159Z,100014.28
2022-10-23T03:26:37.742Z,100021.38
2022-10-23T03:29:04.307Z,100015.84
2022-10-23T03:31:31.057Z,100017.97
2022-10-23T03:33:57.796Z,100014.00
2022-10-23T03:36:24.412Z,100013.84
2022-10-23T03:38:50.952Z,100006.97
2022-10-23T03:41:17.562Z,100012.78
2022-10-23T03:43:44.073Z,100014.34
2022-10-23T03:46:12.855Z,100010.41
2022-10-23T03:48:39.973Z,100016.91
2022-10-23T03:51:06.595Z,100009.41
2022-10-23T03:53:33.232Z,100004.31
2022-10-23T03:55:59.834Z,100003.06
2022-10-23T03:58:26.494Z,100010.44
2022-10-23T04:00:53.182Z,100009.06
2022-10-23T04:03:19.913Z,100011.59
2022-10-23T04:05:46.805Z,100011.06
2022-10-23T04:08:17.603Z,100011.06
2022-10-23T04:10:46.601Z,100017.78
2022-10-23T04:13:13.341Z,100014.28
2022-10-23T04:15:40.307Z,100008.38
2022-10-23T04:18:06.931Z,100007.53
2022-10-23T04:20:33.673Z,100008.09
2022-10-23T04:23:00.281Z,100012.78
2022-10-23T04:25:26.786Z,100009.09
2022-10-23T04:27:57.632Z,100003.44
2022-10-23T04:30:24.143Z,100001.03
2022-10-23T04:32:51.717Z,100003.97
2022-10-23T04:35:20.018Z,100003.84
2022-10-23T04:37:47.721Z,100003.84
2022-10-23T04:40:14.419Z,100002.84
2022-10-23T04:42:41.394Z,100010.91
2022-10-23T04:45:08.489Z,100009.06
2022-10-23T04:47:35.126Z,100006.81
2022-10-23T04:50:01.894Z,100010.66
2022-10-23T04:52:28.464Z,100004.56
2022-10-23T04:54:55.072Z,100005.28
2022-10-23T04:57:21.656Z,100015.25
2022-10-23T04:59:51.561Z,100010.44
2022-10-23T05:02:18.083Z,100009.75
2022-10-23T05:04:44.717Z,100014.41
2022-10-23T05:07:11.520Z,100025.31
2022-10-23T05:09:38.169Z,100012.72
2022-10-23T05:12:04.766Z,100003.38
2022-10-23T05:14:31.503Z,100002.41
2022-10-23T05:17:01.124Z,100007.91
2022-10-23T05:19:32.671Z,100004.66
2022-10-23T05:21:59.534Z,100018.94
2022-10-23T05:24:26.587Z,100015.97
2022-10-23T05:26:53.163Z,100011.31
2022-10-23T05:29:20.282Z,100009.47
2022-10-23T05:31:50.897Z,100008.03
2022-10-23T05:34:18.797Z,100005.66
2022-10-23T05:36:45.773Z,100011.00
2022-10-23T05:39:12.361Z,100011.16
2022-10-23T05:41:38.949Z,100000.69
2022-10-23T05:44:05.631Z,100000.84
2022-10-23T05:46:32.130Z,99999.41
2022-10-23T05:51:26.415Z,99999.84
2022-10-23T05:53:54.514Z,99989.50
2022-10-23T05:56:21.285Z,99999.03
2022-10-23T05:58:48.351Z,99994.22
2022-10-23T06:01:15.511Z,99992.78
2022-10-23T06:03:42.658Z,100000.19
2022-10-23T06:06:09.528Z,99997.09
2022-10-23T06:08:36.300Z,99999.34
2022-10-23T06:11:10.750Z,99993.38
2022-10-23T06:13:37.810Z,99996.78
2022-10-23T06:16:21.693Z,100003.78
2022-10-23T06:18:48.457Z,99999.38
2022-10-23T06:21:15.827Z,99994.06
2022-10-23T06:23:43.535Z,100001.06
2022-10-23T06:26:12.606Z,99993.91
2022-10-23T06:28:39.709Z,99988.91
2022-10-23T06:31:08.426Z,99988.72
2022-10-23T06:33:35.552Z,99979.19
2022-10-23T06:36:03.679Z,99987.84
2022-10-23T06:38:36.491Z,99981.75
2022-10-23T06:41:04.063Z,99990.97
2022-10-23T06:43:30.561Z,99985.59
2022-10-23T06:46:00.670Z,99984.28
2022-10-23T06:48:27.154Z,99997.44
2022-10-23T06:50:53.798Z,99996.09
2022-10-23T06:53:20.606Z,99991.94
2022-10-23T06:55:50.020Z,100019.19
2022-10-23T06:58:19.729Z,100037.34
2022-10-23T07:00:46.510Z,100032.00
2022-10-23T07:03:13.094Z,100054.53
2022-10-23T07:05:41.009Z,100079.34
2022-10-23T07:08:07.603Z,100096.78
2022-10-23T07:10:34.692Z,100087.25
2022-10-23T07:13:01.490Z,100095.69
2022-10-23T07:15:28.180Z,100101.47
2022-10-23T07:17:55.172Z,100112.75
2022-10-23T07:20:22.044Z,100118.31
2022-10-23T07:22:53.006Z,100119.38
2022-10-23T07:25:21.213Z,100112.28
2022-10-23T07:27:48.002Z,100118.31
2022-10-23T07:30:15.419Z,100114.09
2022-10-23T07:32:42.246Z,100113.78
2022-10-23T07:35:09.900Z,100113.38
2022-10-23T07:37:36.637Z,100116.47
2022-10-23T07:40:04.799Z,100123.16
2022-10-23T07:42:31.580Z,100119.84
2022-10-23T07:44:58.196Z,100106.78
2022-10-23T07:47:24.779Z,100106.50
2022-10-23T07:49:51.346Z,100091.53
2022-10-23T07:52:18.054Z,100102.53
2022-10-23T07:54:44.749Z,100099.94
2022-10-23T07:57:12.083Z,100103.25
2022-10-23T07:59:38.652Z,100099.06
2022-10-23T08:02:13.498Z,100098.03
2022-10-23T08:04:40.884Z,100096.66
2022-10-23T08:07:07.696Z,100094.28
2022-10-23T08:09:35.264Z,100098.06
2022-10-23T08:12:01.931Z,100101.50
2022-10-23T08:14:28.753Z,100108.38
2022-10-23T08:16:55.461Z,100104.81
2022-10-23T08:19:22.064Z,100111.47
2022-10-23T08:21:48.842Z,100109.94
2022-10-23T08:24:15.539Z,100107.16
2022-10-23T08:26:42.149Z,100106.94
2022-10-23T08:29:08.881Z,100103.06
2022-10-23T08:31:35.681Z,100106.09
2022-10-23T08:34:02.218Z,100090.16
2022-10-23T08:36:29.564Z,100087.66
2022-10-23T08:38:57.771Z,100084.28
2022-10-23T08:41:29.308Z,100083.28
2022-10-23T08:44:10.018Z,100079.19
2022-10-23T08:46:41.235Z,100080.69
2022-10-23T08:49:43.337Z,100080.09
2022-10-23T08:52:16.190Z,100084.94
2022-10-23T08:54:52.523Z,100090.94
2022-10-23T08:57:22.386Z,100075.66
2022-10-23T08:59:54.406Z,100078.44
2022-10-23T09:02:41.472Z,100087.13
2022-10-23T09:05:20.720Z,100083.09
2022-10-23T09:08:11.691Z,100073.91
2022-10-23T09:10:59.511Z,100070.69
2022-10-23T09:14:03.677Z,100070.53
2022-10-23T09:16:49.028Z,100067.94
2022-10-23T09:19:24.687Z,100055.31
2022-10-23T09:21:51.784Z,100059.25
2022-10-23T09:24:21.384Z,100045.81
2022-10-23T09:26:50.315Z,100035.16
2022-10-23T09:29:27.299Z,100033.69
2022-10-23T09:31:56.442Z,100047.31
2022-10-23T09:34:26.170Z,100061.19
2022-10-23T09:36:59.306Z,100064.75
2022-10-23T09:39:32.035Z,100060.00
2022-10-23T09:41:59.399Z,100068.44
2022-10-23T09:44:28.499Z,100068.94
2022-10-23T09:46:59.550Z,100069.84
2022-10-23T09:49:31.467Z,100071.41
2022-10-23T09:52:04.265Z,100063.91
2022-10-23T09:54:38.134Z,100064.09
2022-10-23T09:57:16.552Z,100062.88
2022-10-23T09:59:43.764Z,100070.78
2022-10-23T10:02:27.273Z,100068.63
2022-10-23T10:04:54.041Z,100062.69
2022-10-23T10:07:23.701Z,100055.09
2022-10-23T10:09:50.836Z,100063.22
2022-10-23T10:12:39.681Z,100053.41
2022-10-23T10:15:25.472Z,100043.06
2022-10-23T10:18:27.361Z,100040.50
2022-10-23T10:21:14.002Z,100038.81
2022-10-23T10:24:11.547Z,100040.25
2022-10-23T10:27:07.832Z,100039.38
2022-10-23T10:29:46.296Z,100035.81
2022-10-23T10:32:40.331Z,100034.94
2022-10-23T10:35:18.977Z,100033.59
2022-10-23T10:38:03.759Z,100025.59
2022-10-23T10:40:36.299Z,100031.34
2022-10-23T10:43:24.771Z,100016.28
2022-10-23T10:45:59.442Z,100017.66
2022-10-23T10:48:43.908Z,100019.81
2022-10-23T10:51:23.734Z,100017.38
2022-10-23T10:53:56.666Z,100017.81
2022-10-23T10:56:26.849Z,100001.09
2022-10-23T10:58:58.415Z,99994.09
2022-10-23T11:01:33.353Z,99994.41
2022-10-23T11:04:05.673Z,99991.88
2022-10-23T11:06:35.872Z,99996.19
2022-10-23T11:09:20.321Z,99981.75
2022-10-23T11:11:48.809Z,99981.47
2022-10-23T11:14:17.290Z,99975.00
2022-10-23T11:16:47.561Z,99976.59
2022-10-23T11:19:19.927Z,99981.47
2022-10-23T11:21:58.099Z,99972.56
2022-10-23T11:25:02.023Z,99975.69
2022-10-23T11:28:03.328Z,99971.84
2022-10-23T11:30:58.937Z,99966.31
2022-10-23T11:33:46.887Z,99960.66
2022-10-23T11:36:16.801Z,99960.03
2022-10-23T11:38:59.038Z,99958.72
2022-10-23T11:41:28.512Z,99957.69
2022-10-23T11:43:57.251Z,99949.28
2022-10-23T11:46:24.641Z,99941.59
2022-10-23T11:48:53.701Z,99947.63
2022-10-23T11:51:34.804Z,99942.03
2022-10-23T11:54:24.359Z,99938.31
2022-10-23T11:56:53.924Z,99936.75
2022-10-23T11:59:31.671Z,99938.16
2022-10-23T12:02:01.042Z,99926.19
2022-10-23T12:04:35.688Z,99928.94
2022-10-23T12:07:05.301Z,99923.13
2022-10-23T12:09:41.054Z,99926.63
2022-10-23T12:12:07.749Z,99928.47
2022-10-23T12:14:34.477Z,99925.50
2022-10-23T12:17:01.753Z,99932.47
2022-10-23T12:19:30.843Z,99928.75
2022-10-23T12:22:00.869Z,99924.34
2022-10-23T12:24:46.280Z,99915.53
2022-10-23T12:27:23.794Z,99909.63
2022-10-23T12:29:56.240Z,99905.88
2022-10-23T12:32:37.689Z,99901.06
2022-10-23T12:35:09.993Z,99903.16
2022-10-23T12:37:49.435Z,99896.25
2022-10-23T12:40:16.143Z,99883.03
2022-10-23T12:42:50.341Z,99874.84
2022-10-23T12:45:19.347Z,99874.22
2022-10-23T12:47:46.828Z,99876.28
2022-10-23T12:50:25.523Z,99864.53
2022-10-23T12:52:57.592Z,99859.72
2022-10-23T12:55:26.598Z,99854.19
2022-10-23T12:57:53.786Z,99849.59
2022-10-23T13:00:22.916Z,99844.00
2022-10-23T13:03:03.462Z,99850.06
2022-10-23T13:05:30.924Z,99844.84
2022-10-23T13:07:58.301Z,99840.66
2022-10-23T13:10:25.031Z,99841.06
2022-10-23T13:13:05.233Z,99826.78
2022-10-23T13:15:39.460Z,99834.16
2022-10-23T13:18:07.338Z,99835.13
2022-10-23T13:20:38.147Z,99831.53
2022-10-23T13:23:07.627Z,99822.09
2022-10-23T13:25:35.870Z,99818.13
2022-10-23T13:28:26.597Z,99822.53
2022-10-23T13:31:10.952Z,99825.72
2022-10-23T13:33:40.414Z,99819.91
2022-10-23T13:36:24.402Z,99809.19
2022-10-23T13:39:10.618Z,99822.00
2022-10-23T13:41:47.248Z,99814.63
2022-10-23T13:44:16.356Z,99821.38
2022-10-23T13:46:43.410Z,99822.03
2022-10-23T13:49:10.223Z,99825.56
2022-10-23T13:51:45.228Z,99821.56
2022-10-23T13:54:15.157Z,99806.44
2022-10-23T13:56:42.109Z,99822.59
2022-10-23T13:59:10.509Z,99808.19
2022-10-23T14:01:37.210Z,99818.88
2022-10-23T14:04:04.822Z,99814.47
2022-10-23T14:06:32.125Z,99809.84
2022-10-23T14:08:59.041Z,99808.81
2022-10-23T14:11:25.913Z,99801.47
2022-10-23T14:13:52.798Z,99812.81
2022-10-23T14:16:23.482Z,99803.16
2022-10-23T14:18:50.401Z,99795.59
2022-10-23T14:21:19.973Z,99788.00
2022-10-23T14:23:47.478Z,99787.59
2022-10-23T14:26:17.322Z,99786.97
2022-10-23T14:28:44.009Z,99794.69
2022-10-23T14:31:13.149Z,99790.06
2022-10-23T14:33:40.001Z,99784.59
2022-10-23T14:36:07.152Z,99776.22
2022-10-23T14:38:34.042Z,99773.59
2022-10-23T14:41:00.793Z,99769.47
2022-10-23T14:43:27.284Z,99775.28
2022-10-23T14:45:54.126Z,99776.94
2022-10-23T14:48:20.922Z,99769.78
2022-10-23T14:50:49.000Z,99760.97
2022-10-23T14:53:15.973Z,99775.56
2022-10-23T14:55:42.747Z,99772.34
2022-10-23T14:58:09.307Z,99764.38
2022-10-23T15:00:35.873Z,99768.66
2022-10-23T15:03:02.526Z,99761.56
2022-10-23T15:05:29.119Z,99762.72
2022-10-23T15:08:01.608Z,99737.44
2022-10-23T15:10:28.048Z,99739.66
2022-10-23T15:12:54.547Z,99722.13
2022-10-23T15:15:22.864Z,99731.44
2022-10-23T15:17:54.431Z,99735.84
2022-10-23T15:20:21.019Z,99729.53
2022-10-23T15:22:47.679Z,99727.00
2022-10-23T15:25:17.926Z,99732.81
2022-10-23T15:27:44.729Z,99734.25
2022-10-23T15:30:12.442Z,99735.91
2022-10-23T15:32:39.288Z,99736.53
2022-10-23T15:35:07.315Z,99730.53
2022-10-23T15:37:33.904Z,99733.50
2022-10-23T15:40:17.047Z,99720.59
2022-10-23T15:42:43.919Z,99725.38
2022-10-23T15:45:13.180Z,99722.41
2022-10-23T15:47:39.617Z,99720.69
2022-10-23T15:50:08.871Z,99724.28
2022-10-23T15:52:35.472Z,99722.94
2022-10-23T15:55:02.262Z,99728.81
2022-10-23T15:57:33.146Z,99726.03
2022-10-23T15:59:59.921Z,99713.91
2022-10-23T16:02:26.702Z,99706.94
2022-10-23T16:04:53.401Z,99704.03
2022-10-23T16:07:21.435Z,99708.03
2022-10-23T16:09:48.043Z,99706.22
2022-10-23T16:12:14.563Z,99705.94
2022-10-23T16:14:41.315Z,99708.09
2022-10-23T16:17:07.861Z,99701.13
2022-10-23T16:19:34.639Z,99707.38
2022-10-23T16:22:02.914Z,99699.09
2022-10-23T16:24:30.225Z,99698.25
2022-10-23T16:26:57.584Z,99697.41
2022-10-23T16:29:26.180Z,99695.72
2022-10-23T16:32:04.456Z,99687.97
2022-10-23T16:34:30.992Z,99688.53
2022-10-23T16:36:57.802Z,99700.28
2022-10-23T16:39:24.572Z,99693.31
2022-10-23T16:41:51.263Z,99689.81
2022-10-23T16:44:18.241Z,99687.31
2022-10-23T16:46:44.842Z,99678.72
2022-10-23T16:49:11.560Z,99675.09
2022-10-23T16:51:38.110Z,99678.06
2022-10-23T16:54:04.773Z,99682.19
2022-10-23T16:56:31.498Z,99678.06
2022-10-23T17:01:34.877Z,99668.50
2022-10-23T17:04:01.442Z,99666.44
2022-10-23T17:06:30.630Z,99661.78
2022-10-23T17:09:06.132Z,99657.66
2022-10-23T17:11:35.715Z,99660.94
2022-10-23T17:14:05.613Z,99654.69
2022-10-23T17:16:36.994Z,99656.09
2022-10-23T17:19:15.909Z,99648.34
2022-10-23T17:21:47.980Z,99637.09
2022-10-23T17:24:14.433Z,99635.81
2022-10-23T17:26:41.295Z,99640.81
2022-10-23T17:29:09.530Z,99631.22
2022-10-23T17:31:39.587Z,99628.97
2022-10-23T17:34:08.858Z,99628.09
2022-10-23T17:36:37.761Z,99631.44
2022-10-23T17:39:06.409Z,99643.34
2022-10-23T17:41:33.701Z,99641.41
2022-10-23T17:44:00.991Z,99630.75
2022-10-23T17:46:29.271Z,99627.00
2022-10-23T17:51:32.301Z,99612.09
2022-10-23T17:54:05.336Z,99604.41
2022-10-23T17:56:33.392Z,99598.13
2022-10-23T17:59:03.363Z,99593.50
2022-10-23T18:01:32.227Z,99602.28
2022-10-23T18:04:04.240Z,99599.34
2022-10-23T18:06:33.914Z,99601.75
2022-10-23T18:09:01.705Z,99587.16
2022-10-23T18:11:31.822Z,99596.97
2022-10-23T18:16:34.765Z,99591.28
2022-10-23T18:19:02.127Z,99590.91
2022-10-23T18:21:29.147Z,99585.22
2022-10-23T18:24:00.190Z,99579.91
2022-10-23T18:26:28.826Z,99572.06
2022-10-23T18:29:00.855Z,99560.38
2022-10-23T18:31:30.836Z,99562.44
2022-10-23T18:34:01.340Z,99546.56
2022-10-23T18:36:30.482Z,99556.63
2022-10-23T18:39:06.191Z,99556.44
2022-10-23T18:41:35.430Z,99554.31
2022-10-23T18:44:03.593Z,99558.38
2022-10-23T18:46:30.322Z,99555.75
2022-10-23T18:48:59.592Z,99553.47
2022-10-23T18:51:28.650Z,99541.38
2022-10-23T18:53:55.716Z,99534.28
2022-10-23T18:56:28.187Z,99518.84
2022-10-23T18:58:59.921Z,99517.38
2022-10-23T19:01:50.191Z,99516.34
2022-10-23T19:04:18.815Z,99513.41
2022-10-23T19:06:49.000Z,99521.75
2022-10-23T19:09:16.319Z,99526.16
2022-10-23T19:11:46.106Z,99536.34
2022-10-23T19:14:13.330Z,99534.06
2022-10-23T19:16:43.462Z,99548.50
2022-10-23T19:19:20.949Z,99533.91
2022-10-23T19:21:55.560Z,99542.22
2022-10-23T19:24:47.829Z,99532.66
2022-10-23T19:27:14.865Z,99520.97
2022-10-23T19:29:44.035Z,99502.78
2022-10-23T19:32:19.777Z,99503.22
2022-10-23T19:34:46.377Z,99499.22
2022-10-23T19:39:41.633Z,99492.63
2022-10-23T19:42:08.994Z,99501.53
2022-10-23T19:44:35.545Z,99495.75
2022-10-23T19:47:03.451Z,99497.22
2022-10-23T19:49:30.244Z,99486.75
2022-10-23T19:52:01.943Z,99478.88
2022-10-23T19:54:28.966Z,99474.28
2022-10-23T19:56:56.764Z,99472.16
2022-10-23T19:59:24.124Z,99458.03
2022-10-23T20:01:50.863Z,99460.53
2022-10-23T20:04:18.702Z,99455.50
2022-10-23T20:06:45.301Z,99462.66
2022-10-23T20:09:14.356Z,99455.97
2022-10-23T20:11:41.013Z,99453.09
2022-10-23T20:14:07.890Z,99455.22
2022-10-23T20:16:37.185Z,99450.63
2022-10-23T20:19:11.011Z,99439.38
2022-10-23T20:21:40.246Z,99436.25
2022-10-23T20:24:07.528Z,99442.75
2022-10-23T20:26:34.729Z,99439.38
2022-10-23T20:29:01.599Z,99442.34
2022-10-23T20:31:29.438Z,99443.84
2022-10-23T20:33:57.250Z,99440.72
2022-10-23T20:36:33.464Z,99442.59
2022-10-23T20:39:03.828Z,99425.28
2022-10-23T20:41:33.088Z,99426.53
2022-10-23T20:44:00.235Z,99420.06
2022-10-23T20:46:27.174Z,99427.16
2022-10-23T20:48:55.164Z,99424.84
2022-10-23T20:51:23.377Z,99429.44
2022-10-23T20:53:51.022Z,99436.38
2022-10-23T20:56:23.870Z,99447.03
2022-10-23T20:58:50.757Z,99457.50
2022-10-23T21:01:18.488Z,99466.28
2022-10-23T21:03:50.933Z,99472.75
2022-10-23T21:06:18.190Z,99482.34
2022-10-23T21:08:45.317Z,99479.25
2022-10-23T21:11:15.011Z,99459.59
2022-10-23T21:13:43.642Z,99481.13
2022-10-23T21:16:24.816Z,99478.41
2022-10-23T21:18:55.645Z,99485.91
2022-10-23T21:21:33.264Z,99486.75
2022-10-23T21:24:00.931Z,99510.97
2022-10-23T21:26:29.702Z,99518.69
2022-10-23T21:29:16.830Z,99544.97
2022-10-23T21:31:43.107Z,99554.09
2022-10-23T21:37:10.906Z,99566.59
2022-10-23T21:39:32.728Z,99562.50
2022-10-23T21:41:59.191Z,99554.63
2022-10-23T21:44:25.680Z,99570.34
2022-10-23T21:46:52.266Z,99568.59
2022-10-23T21:49:20.919Z,99562.63
2022-10-23T21:51:47.730Z,99564.31
2022-10-23T21:54:17.207Z,99565.88
2022-10-23T21:56:53.405Z,99575.97
2022-10-23T21:59:22.688Z,99564.91
2022-10-23T22:01:49.517Z,99544.00
2022-10-23T22:04:17.518Z,99531.56
2022-10-23T22:06:49.856Z,99531.88
2022-10-23T22:09:19.602Z,99537.66
2022-10-23T22:11:46.541Z,99532.06
2022-10-23T22:14:13.092Z,99546.50
2022-10-23T22:16:39.766Z,99556.56
2022-10-23T22:19:07.768Z,99562.75
2022-10-23T22:21:34.423Z,99574.81
2022-10-23T22:24:01.272Z,99574.81
2022-10-23T22:26:33.217Z,99559.13
2022-10-23T22:29:04.970Z,99549.06
2022-10-23T22:31:33.445Z,99538.75
2022-10-23T22:34:13.055Z,99518.69
2022-10-23T22:36:48.383Z,99507.38
2022-10-23T22:39:14.964Z,99505.91
2022-10-23T22:41:43.278Z,99482.38
2022-10-23T22:44:11.810Z,99478.91
2022-10-23T22:46:38.509Z,99482.06
2022-10-23T22:51:32.843Z,99483.75
2022-10-23T22:54:02.638Z,99483.38
2022-10-23T22:56:30.713Z,99478.53
2022-10-23T22:58:59.240Z,99482.91
2022-10-23T23:01:40.208Z,99480.84
2022-10-23T23:04:19.527Z,99471.97
2022-10-23T23:06:52.647Z,99483.41
2022-10-23T23:09:22.286Z,99493.03
2022-10-23T23:11:52.743Z,99494.91
2022-10-23T23:14:23.925Z,99496.78
2022-10-23T23:17:11.986Z,99469.88
2022-10-23T23:19:39.498Z,99460.09
2022-10-23T23:22:07.752Z,99475.09
2022-10-23T23:24:34.436Z,99480.53
2022-10-23T23:27:01.639Z,99479.03
2022-10-23T23:29:29.588Z,99483.84
2022-10-23T23:31:56.124Z,99484.22
2022-10-23T23:34:23.419Z,99487.56
2022-10-23T23:36:50.276Z,99487.31
2022-10-23T23:39:17.144Z,99488.59
2022-10-23T23:41:43.674Z,99490.84
2022-10-23T23:44:10.324Z,99495.16
2022-10-23T23:46:36.948Z,99498.69
2022-10-23T23:49:03.547Z,99498.69
2022-10-23T23:51:30.118Z,99515.50
2022-10-23T23:53:56.843Z,99498.22
2022-10-23T23:56:26.454Z,99487.06
2022-10-23T23:58:53.022Z,99488.69
